Meteo Giornale » Osservazioni meteo Stati Uniti (USA) » Imperial
ore: 13:53 - Osservazioni Meteo Imperial
Lat. 32° 50' N Lon. 115° 34' W Alt. -17 metri s.l.m.
38 °C
Sereno
Temp. 24 Ore
28 °C
42 °C
Nord
0 Km/h
Dew point 13 °C
Umidità 22 %
Visibilità 10 Km
Il sole sorge alle ore 06:17
Il sole tramonta alle ore 19:07
| Data e Ora | Cielo e Fenomeni | T °C | DP °C | Um. % | Pres. hPa | Vis. km | Vento km/h | |
|---|---|---|---|---|---|---|---|---|
| Oggi h: 13:53 | Sereno | 38 | 13 | 22 | 1009 | 10 | N 0 | |
| Oggi h: 12:53 | Sereno | 37 | 9 | 18 | 1010 | 10 | N 5.5 | |
| Oggi h: 11:53 | Sereno | 37 | 9 | 18 | 1011 | 10 | N 9.3 | |
| Oggi h: 10:53 | Sereno | 35 | 7 | 17 | 1011 | 10 | N 0 | |
| Oggi h: 09:53 | Sereno | 34 | 6 | 17 | 1011 | 10 | E/SE 7.4 | |
| Oggi h: 08:53 | Sereno | 33 | 4 | 16 | 1011 | 10 | E/SE 7.4 | |
| Oggi h: 07:53 | Sereno | 31 | 9 | 25 | 1010 | 11 | E 7.4 | |
| Oggi h: 07:49 | Sereno | 30 | 9 | 27 | 1010 | 11 | E/SE 7.4 | |
| Oggi h: 06:59 | Foschia | 28 | 7 | 26 | 1010 | 0 | N/NE 7.4 | |
| Oggi h: 06:53 | Sereno | 28 | 7 | 26 | 1010 | 11 | N 5.5 | |
| Oggi h: 05:53 | Sereno | 28 | 8 | 28 | 1010 | 10 | N 5.5 | |
| Oggi h: 04:53 | Sereno | 29 | 9 | 28 | 1009 | 10 | N 0 | |
| Oggi h: 03:53 | Poco Nuvoloso | 29 | 11 | 32 | 1009 | 13 | N 0 | |
| Oggi h: 02:53 | Poco Nuvoloso | 31 | 12 | 31 | 1009 | 10 | N 5.5 | |
| Oggi h: 01:53 | Sereno | 31 | 12 | 31 | 1009 | 10 | N 5.5 | |
| Oggi h: 00:53 | Nuvoloso | 32 | 12 | 29 | 1009 | 10 | N 0 | |
| Ieri h: 23:53 | Molto Nuvoloso | 32 | 12 | 29 | 1009 | 10 | O/NO 7.4 | |
| Ieri h: 22:53 | Sereno | 33 | 12 | 27 | 1008 | 10 | O 13 | |
| Ieri h: 21:53 | Nuvoloso | 33 | 12 | 27 | 1008 | 10 | O 18.5 | |
| Ieri h: 20:53 | Sereno | 33 | 12 | 27 | 1008 | 10 | O/NO 18.5 | |
| Ieri h: 18:53 | Sereno | 37 | 12 | 22 | 1005 | 10 | O 25.9 | |
| Ieri h: 17:53 | Sereno | 39 | 11 | 18 | 1005 | 10 | O 31.5 | |
| Ieri h: 16:53 | Poco Nuvoloso | 41 | 13 | 19 | 1005 | 10 | S 7.4 | |
| Ieri h: 15:53 | Sereno | 42 | 14 | 19 | 1006 | 10 | S/SO 16.7 | |



